Flight Track Log - Related Links

Times and Time Zones

All times are in EDT time to prevent confusion due to time zone crossing. See the N904ER flight status page for this flight to view local times or setup timezone preferences in your user account.


Time Position Orientation Groundspeed Altitude Reporting Facility
EDT Latitude Longitude Course Direction KTS MPH feet Rate Location/Type
Fri 01:04:00 PM 28.8833 -80.9000 164° South 126 145 2,000  Level Orlando TRACON
Fri 01:05:01 PM 28.8333 -80.8833 164° South 129 148 2,000  Level Orlando TRACON
Fri 01:06:01 PM 28.8000 -80.8833 180° South 124 143 2,000 250 Level Orlando TRACON
Fri 01:07:01 PM 28.7667 -80.8667 156° South 132 152 2,500 450 Climbing Orlando TRACON
Fri 01:08:01 PM 28.7333 -80.8667 180° South 133 153 2,900 238 Climbing Orlando TRACON
Fri 01:09:07 PM 28.7000 -80.8500 156° South 131 151 3,000 48 Climbing Orlando TRACON
Fri 01:10:07 PM 28.6667 -80.8500 180° South 131 151 3,000  Level Orlando TRACON
Fri 01:11:07 PM 28.6333 -80.8333 156° South 125 144 3,000  Level Orlando TRACON
Fri 01:12:01 PM 28.6000 -80.8333 180° South 129 148 3,000  Level Orlando TRACON
Fri 01:13:01 PM 28.5667 -80.8167 156° South 129 148 3,000 48 Level Orlando TRACON
Fri 01:14:07 PM 28.5333 -80.8000 156° South 127 146 3,100 200 Climbing Orlando TRACON
Fri 01:15:01 PM 28.5000 -80.7833 156° South 128 147 3,400 211 Climbing Orlando TRACON
Fri 01:16:01 PM 28.4667 -80.7833 180° South 134 154 3,500 50 Climbing Orlando TRACON
Fri 01:17:01 PM 28.4167 -80.7667 164° South 135 155 3,500 -50 Level Orlando TRACON
Fri 01:18:01 PM 28.3833 -80.7500 156° South 133 153 3,400  Descending Orlando TRACON
Fri 01:19:02 PM 28.3500 -80.7333 156° South 132 152 3,500 52 Climbing Orlando TRACON
Fri 01:19:56 PM 28.3167 -80.7167 156° South 135 155 3,500  Level Orlando TRACON
Fri 01:20:56 PM 28.2833 -80.7167 180° South 136 157 3,500  Level Orlando TRACON
Fri 01:22:02 PM 28.2500 -80.7000 156° South 140 161 3,500  Level Orlando TRACON
Fri 01:23:02 PM 28.2000 -80.6833 164° South 137 158 3,500 -100 Level Orlando TRACON
Fri 01:24:02 PM 28.1667 -80.6667 156° South 136 157 3,300 -190 Descending Orlando TRACON
Fri 01:25:08 PM 28.1333 -80.6500 156° South 139 160 3,100 -143 Descending Orlando TRACON
Fri 01:26:08 PM 28.1000 -80.6333 156° South 132 152 3,000 -72 Descending Orlando TRACON
Fri 01:27:54 PM 28.0367 -80.6158 166° South 133 153 2,900 -36 Descending Miami Center
Fri 01:28:54 PM 28.0058 -80.5936 148° Southeast 128 147 2,900 -200 Level Miami Center
Fri 01:29:54 PM 27.9750 -80.5786 157° South 133 153 2,500 -200 Descending Miami Center
Fri 01:30:54 PM 27.9378 -80.5656 163° South 138 159 2,500  Level Miami Center
Fri 01:31:54 PM 27.9092 -80.5364 138° Southeast 128 147 2,500  Level Miami Center
Fri 01:32:54 PM 27.8850 -80.5050 131° Southeast 128 147 2,500  Level Miami Center
Fri 01:33:54 PM 27.8500 -80.4828 151° Southeast 128 147 2,500  Level Miami Center
Fri 01:34:54 PM 27.8211 -80.4656 152° Southeast 128 147 2,500  Level Miami Center
Fri 01:35:54 PM 27.7861 -80.4525 162° South 128 147 2,500 50 Level Miami Center
Fri 01:36:54 PM 27.7467 -80.4397 164° South 128 147 2,600 50 Climbing Miami Center
Fri 01:37:54 PM 27.7114 -80.4361 175° South 128 147 2,600  Level Miami Center
Fri 01:38:54 PM 27.6761 -80.4258 166° South 128 147 2,600  Level Miami Center
Fri 01:39:54 PM 27.6447 -80.4272 182° South 123 142 2,600 -50 Level Miami Center
Fri 01:40:54 PM 27.6094 -80.4167 165° South 123 142 2,500 -100 Descending Miami Center

Login

Don't have an account? Register now (free) for customized features, flight alerts, and more!